createdAt,value
2023-04-28T00:09:35.308Z,3.63
2023-04-28T00:21:22.791Z,3.90
2023-04-28T00:29:04.845Z,4.07
2023-04-28T00:32:46.923Z,4.67
2023-04-28T00:36:28.934Z,4.80
2023-04-28T00:48:13.179Z,4.83
2023-04-28T00:59:56.754Z,5.60
2023-04-28T01:03:39.143Z,5.17
2023-04-28T01:11:21.717Z,5.20
2023-04-28T01:15:04.338Z,5.80
2023-04-28T01:18:48.296Z,6.23
2023-04-28T01:26:30.622Z,5.90
2023-04-28T01:41:42.587Z,4.97
2023-04-28T01:44:50.325Z,5.00
2023-04-28T01:47:54.890Z,4.93
2023-04-28T01:51:19.856Z,4.80
2023-04-28T01:55:02.823Z,4.83
2023-04-28T01:58:45.165Z,4.67
2023-04-28T02:01:53.168Z,4.10
2023-04-28T02:05:35.562Z,4.87
2023-04-28T02:09:18.059Z,4.20
2023-04-28T02:12:06.741Z,4.40
2023-04-28T02:15:12.861Z,4.47
2023-04-28T02:18:38.345Z,4.30
2023-04-28T02:21:28.333Z,4.90
2023-04-28T02:24:36.101Z,5.20
2023-04-28T02:28:23.830Z,5.10
2023-04-28T02:31:47.824Z,4.43
2023-04-28T02:34:53.466Z,4.33
2023-04-28T02:38:17.035Z,4.50
2023-04-28T02:41:06.004Z,5.17
2023-04-28T02:44:12.106Z,4.20
2023-04-28T02:47:17.931Z,5.07
2023-04-28T02:51:00.023Z,5.40
2023-04-28T02:53:48.434Z,5.30
2023-04-28T02:56:54.609Z,5.33
2023-04-28T02:59:59.907Z,4.83
2023-04-28T03:03:42.258Z,5.00
2023-04-28T03:07:06.725Z,5.47
2023-04-28T03:10:14.356Z,6.13
2023-04-28T03:13:20.246Z,5.53
2023-04-28T03:16:26.259Z,5.93
2023-04-28T03:19:30.458Z,6.03
2023-04-28T03:22:36.077Z,5.87
2023-04-28T03:25:24.546Z,5.50
2023-04-28T03:28:48.764Z,6.13
2023-04-28T03:32:13.496Z,5.27
2023-04-28T03:35:00.723Z,5.00
2023-04-28T03:38:24.132Z,5.40
2023-04-28T03:41:48.310Z,5.03
2023-04-28T03:45:16.036Z,5.40
2023-04-28T03:48:39.273Z,5.00
2023-04-28T03:51:26.162Z,5.47
2023-04-28T03:54:49.238Z,5.60
2023-04-28T03:58:31.464Z,5.37
2023-04-28T04:01:38.883Z,4.93
2023-04-28T04:05:02.339Z,4.70
2023-04-28T04:08:25.861Z,4.07
2023-04-28T04:11:34.098Z,4.77
2023-04-28T04:14:21.829Z,4.73
2023-04-28T04:17:46.621Z,4.27
2023-04-28T04:21:09.789Z,4.63
2023-04-28T04:24:34.645Z,4.30
2023-04-28T04:27:58.821Z,4.47
2023-04-28T04:31:21.839Z,4.40
2023-04-28T04:34:27.468Z,4.37
2023-04-28T04:37:50.567Z,4.37
2023-04-28T04:40:55.826Z,4.20
2023-04-28T04:44:22.882Z,4.07
2023-04-28T04:48:05.940Z,4.23
2023-04-28T04:51:30.408Z,4.40
2023-04-28T04:54:38.027Z,4.00
2023-04-28T04:58:01.517Z,4.70
2023-04-28T05:01:07.142Z,4.37
2023-04-28T05:04:31.841Z,4.10
2023-04-28T05:07:19.092Z,3.73
2023-04-28T05:10:43.911Z,4.60
2023-04-28T05:13:50.138Z,4.87
2023-04-28T05:17:12.995Z,4.27
2023-04-28T05:20:20.856Z,4.13
2023-04-28T05:24:02.989Z,4.73
2023-04-28T05:26:55.643Z,4.47
2023-04-28T05:30:02.120Z,4.40
2023-04-28T05:32:49.412Z,4.20
2023-04-28T05:36:12.238Z,3.90
2023-04-28T05:39:35.499Z,3.80
2023-04-28T05:43:00.911Z,4.00
2023-04-28T05:45:48.867Z,3.53
2023-04-28T05:48:55.534Z,4.37
2023-04-28T05:52:20.420Z,4.10
2023-04-28T05:56:02.283Z,4.23
2023-04-28T05:59:28.630Z,4.07
2023-04-28T06:03:18.554Z,4.40
2023-04-28T06:06:24.596Z,4.50
2023-04-28T06:10:08.761Z,4.30
2023-04-28T06:13:53.213Z,4.00
2023-04-28T06:17:22.680Z,4.33
2023-04-28T06:21:16.232Z,4.40
2023-04-28T06:25:07.893Z,4.33
2023-04-28T06:29:05.788Z,4.40
2023-04-28T06:32:51.838Z,4.40
2023-04-28T06:36:00.192Z,4.77
2023-04-28T06:39:07.165Z,4.73
2023-04-28T06:42:30.357Z,5.13
2023-04-28T06:45:35.035Z,5.20
2023-04-28T06:48:41.282Z,4.63
2023-04-28T06:51:47.193Z,5.07
2023-04-28T06:55:10.282Z,5.60
2023-04-28T06:57:57.680Z,4.30
2023-04-28T07:00:44.907Z,5.13
2023-04-28T07:03:32.037Z,5.10
2023-04-28T07:06:21.536Z,6.07
2023-04-28T07:10:03.821Z,5.00
2023-04-28T07:13:08.394Z,5.73
2023-04-28T07:15:56.037Z,6.70
2023-04-28T07:19:00.419Z,5.40
2023-04-28T07:21:48.895Z,5.40
2023-04-28T07:25:12.366Z,6.20
2023-04-28T07:28:54.236Z,6.07
2023-04-28T07:32:07.348Z,6.13
2023-04-28T07:35:31.668Z,5.53
2023-04-28T07:39:13.922Z,6.67
2023-04-28T07:42:02.727Z,6.60
2023-04-28T07:45:25.805Z,7.13
2023-04-28T07:48:49.705Z,7.20
2023-04-28T07:51:56.980Z,7.60
2023-04-28T07:55:02.896Z,7.23
2023-04-28T07:57:33.109Z,6.40
2023-04-28T08:00:56.984Z,6.43
2023-04-28T08:04:02.185Z,5.43
2023-04-28T08:07:26.943Z,5.10
2023-04-28T08:10:12.812Z,5.33
2023-04-28T08:13:18.784Z,4.37
2023-04-28T08:16:05.776Z,3.73
2023-04-28T08:19:12.039Z,4.83
2023-04-28T08:22:00.164Z,5.57
2023-04-28T08:24:47.263Z,6.07
2023-04-28T08:28:12.100Z,6.50
2023-04-28T08:31:01.884Z,6.80
2023-04-28T08:34:07.917Z,6.20
2023-04-28T08:37:50.134Z,5.47
2023-04-28T08:40:57.561Z,5.70
2023-04-28T08:44:23.640Z,6.23
2023-04-28T08:47:13.155Z,5.87
2023-04-28T08:50:37.666Z,4.80
2023-04-28T08:54:06.108Z,6.07
2023-04-28T08:57:10.394Z,5.30
2023-04-28T09:00:35.441Z,7.07
2023-04-28T09:03:41.342Z,5.97
2023-04-28T09:06:28.665Z,4.90
2023-04-28T09:09:54.047Z,6.00
2023-04-28T09:12:58.891Z,5.93
2023-04-28T09:16:04.367Z,6.83
2023-04-28T09:19:11.141Z,7.00
2023-04-28T09:22:34.734Z,6.10
2023-04-28T09:25:12.699Z,6.23
2023-04-28T09:28:17.487Z,6.80
2023-04-28T09:31:05.049Z,6.90
2023-04-28T09:33:37.145Z,6.03
2023-04-28T09:36:43.017Z,5.83
2023-04-28T09:40:07.939Z,6.23
2023-04-28T09:42:55.199Z,5.10
2023-04-28T09:45:59.444Z,6.00
2023-04-28T09:48:49.143Z,6.70
2023-04-28T09:52:12.872Z,6.10
2023-04-28T09:55:35.950Z,5.60
2023-04-28T09:58:59.624Z,5.47
2023-04-28T10:01:47.219Z,5.47
2023-04-28T10:04:53.776Z,5.97
2023-04-28T10:08:00.378Z,5.50
2023-04-28T10:10:30.826Z,5.40
2023-04-28T10:13:18.088Z,5.27
2023-04-28T10:16:42.158Z,4.53
2023-04-28T10:20:06.704Z,4.20
2023-04-28T10:23:40.133Z,4.97
2023-04-28T10:26:46.868Z,4.57
2023-04-28T10:29:54.372Z,4.20
2023-04-28T10:32:59.271Z,4.30
2023-04-28T10:36:27.014Z,4.57
2023-04-28T10:39:29.644Z,4.40
2023-04-28T10:41:58.123Z,4.27
2023-04-28T10:45:22.851Z,5.13
2023-04-28T10:48:27.399Z,4.80
2023-04-28T10:51:24.409Z,5.30
2023-04-28T10:54:37.849Z,5.00
2023-04-28T10:58:21.276Z,5.90
2023-04-28T11:01:46.489Z,5.10
2023-04-28T11:04:54.561Z,5.10
2023-04-28T11:08:00.950Z,5.20
2023-04-28T11:11:07.002Z,4.33
2023-04-28T11:14:13.041Z,6.30
2023-04-28T11:17:21.735Z,7.50
2023-04-28T11:20:28.894Z,6.53
2023-04-28T11:23:34.638Z,7.30
2023-04-28T11:26:23.772Z,6.60
2023-04-28T11:29:47.886Z,5.40
2023-04-28T11:32:55.031Z,4.33
2023-04-28T11:36:37.180Z,3.80
2023-04-28T11:39:45.846Z,4.20
2023-04-28T11:42:34.073Z,5.23
2023-04-28T11:45:57.127Z,5.67
2023-04-28T11:48:45.818Z,5.60
2023-04-28T11:51:38.171Z,5.30
2023-04-28T11:54:26.518Z,4.73
2023-04-28T11:57:16.433Z,5.47
2023-04-28T12:00:22.714Z,4.93
2023-04-28T12:03:46.340Z,4.83
2023-04-28T12:07:11.851Z,4.80
2023-04-28T12:09:43.439Z,4.67
2023-04-28T12:16:00.047Z,4.23
2023-04-28T12:19:08.741Z,4.77
2023-04-28T12:22:32.383Z,4.10
2023-04-28T12:25:43.612Z,3.40
2023-04-28T12:29:07.074Z,4.27
2023-04-28T12:32:06.885Z,3.87
2023-04-28T12:35:31.203Z,3.90
2023-04-28T12:38:54.788Z,3.70
2023-04-28T12:42:18.428Z,3.97
2023-04-28T12:45:24.367Z,3.30
2023-04-28T12:47:54.220Z,3.17
2023-04-28T12:51:38.903Z,3.00
2023-04-28T12:54:43.848Z,3.00
2023-04-28T12:57:50.600Z,3.00
2023-04-28T13:01:14.193Z,2.90
2023-04-28T13:04:56.459Z,2.57
2023-04-28T13:08:21.538Z,3.03
2023-04-28T13:11:45.625Z,2.57
2023-04-28T13:14:50.165Z,2.50
2023-04-28T13:17:54.481Z,3.10
2023-04-28T13:20:41.819Z,2.73
2023-04-28T13:24:07.651Z,2.83
2023-04-28T13:27:12.972Z,2.63
2023-04-28T13:30:19.285Z,2.70
2023-04-28T13:33:06.287Z,2.63
2023-04-28T13:36:11.159Z,2.47
2023-04-28T13:39:15.810Z,2.57
2023-04-28T13:42:21.624Z,3.10
2023-04-28T13:45:07.460Z,2.57
2023-04-28T13:48:13.478Z,2.73
2023-04-28T13:51:18.444Z,2.60
2023-04-28T13:54:23.168Z,2.37
2023-04-28T13:57:48.235Z,1.97
2023-04-28T14:01:30.421Z,1.90
2023-04-28T14:04:36.312Z,2.20
2023-04-28T14:07:41.553Z,1.40
2023-04-28T14:10:12.410Z,1.73
2023-04-28T14:13:37.188Z,1.53
2023-04-28T14:17:19.451Z,1.77
2023-04-28T14:20:44.031Z,1.53
2023-04-28T14:23:49.785Z,1.67
2023-04-28T14:27:14.027Z,1.67
2023-04-28T14:30:18.403Z,2.03
2023-04-28T14:33:42.783Z,1.40
2023-04-28T14:37:25.180Z,1.47
2023-04-28T14:40:49.817Z,1.50
2023-04-28T14:43:55.808Z,1.40
2023-04-28T14:46:24.309Z,1.60
2023-04-28T14:49:29.583Z,1.60
2023-04-28T14:52:35.658Z,1.10
2023-04-28T14:55:40.123Z,1.20
2023-04-28T14:58:45.691Z,1.13
2023-04-28T15:02:09.319Z,1.27
2023-04-28T15:05:51.581Z,0.97
2023-04-28T15:09:33.639Z,1.20
2023-04-28T15:12:57.477Z,1.10
2023-04-28T15:15:44.681Z,1.00
2023-04-28T15:18:50.773Z,1.07
2023-04-28T15:21:38.696Z,1.10
2023-04-28T15:25:20.992Z,0.93
2023-04-28T15:27:50.344Z,0.83
2023-04-28T15:30:37.804Z,0.80
2023-04-28T15:33:44.751Z,0.77
2023-04-28T15:36:32.462Z,0.90
2023-04-28T15:39:19.608Z,0.90
2023-04-28T15:42:05.830Z,0.87
2023-04-28T15:45:12.100Z,1.20
2023-04-28T15:47:59.214Z,0.93
2023-04-28T15:51:04.545Z,1.17
2023-04-28T15:54:09.057Z,1.20
2023-04-28T15:57:32.671Z,1.20
2023-04-28T16:00:57.507Z,1.30
2023-04-28T16:03:45.340Z,1.40
2023-04-28T16:06:52.639Z,1.57
2023-04-28T16:10:15.877Z,1.60
2023-04-28T16:13:20.516Z,1.67
2023-04-28T16:16:07.627Z,1.60
2023-04-28T16:19:13.449Z,1.70
2023-04-28T16:22:37.106Z,1.60
2023-04-28T16:25:43.850Z,1.50
2023-04-28T16:28:49.557Z,1.30
2023-04-28T16:32:31.773Z,1.50
2023-04-28T16:35:55.089Z,1.33
2023-04-28T16:38:43.184Z,1.30
2023-04-28T16:41:32.077Z,1.50
2023-04-28T16:44:55.922Z,1.20
2023-04-28T16:47:43.940Z,1.40
2023-04-28T16:50:31.486Z,1.07
2023-04-28T16:53:55.035Z,1.27
2023-04-28T16:56:25.274Z,1.17
2023-04-28T16:59:30.865Z,1.13
2023-04-28T17:02:36.239Z,1.57
2023-04-28T17:05:23.529Z,1.50
2023-04-28T17:08:10.259Z,1.50
2023-04-28T17:11:14.898Z,1.30
2023-04-28T17:14:03.687Z,1.20
2023-04-28T17:17:07.901Z,1.30
2023-04-28T17:20:16.772Z,1.60
2023-04-28T17:23:22.584Z,1.40
2023-04-28T17:26:29.022Z,1.30
2023-04-28T17:30:11.301Z,1.10
2023-04-28T17:33:18.141Z,1.30
2023-04-28T17:36:05.730Z,1.23
2023-04-28T17:39:29.451Z,1.30
2023-04-28T17:42:52.451Z,1.60
2023-04-28T17:45:58.230Z,1.30
2023-04-28T17:49:04.298Z,1.33
2023-04-28T17:52:29.822Z,1.20
2023-04-28T17:55:34.270Z,1.30
2023-04-28T17:58:38.793Z,1.60
2023-04-28T18:02:02.478Z,1.77
2023-04-28T18:04:51.869Z,1.37
2023-04-28T18:07:40.047Z,1.47
2023-04-28T18:10:44.523Z,1.57
2023-04-28T18:13:50.335Z,1.50
2023-04-28T18:16:54.387Z,1.63
2023-04-28T18:19:42.200Z,1.70
2023-04-28T18:22:12.037Z,1.70
2023-04-28T18:24:59.803Z,1.40
2023-04-28T18:28:22.942Z,1.80
2023-04-28T18:31:45.966Z,1.60
2023-04-28T18:34:14.510Z,1.87
2023-04-28T18:37:01.802Z,1.63
2023-04-28T18:40:07.828Z,1.87
2023-04-28T18:43:14.642Z,1.80
2023-04-28T18:46:38.471Z,1.83
2023-04-28T18:49:42.791Z,1.43
2023-04-28T18:52:28.606Z,1.93
2023-04-28T18:55:52.574Z,1.63
2023-04-28T18:59:35.023Z,1.83
2023-04-28T19:02:05.180Z,1.70
2023-04-28T19:05:11.605Z,1.70
2023-04-28T19:08:16.871Z,1.90
2023-04-28T19:11:21.593Z,1.70
2023-04-28T19:14:27.328Z,1.93
2023-04-28T19:17:33.777Z,1.93
2023-04-28T19:20:59.964Z,1.97
2023-04-28T19:24:23.677Z,1.73
2023-04-28T19:27:48.802Z,1.70
2023-04-28T19:30:53.107Z,1.83
2023-04-28T19:34:16.997Z,1.67
2023-04-28T19:37:04.320Z,1.60
2023-04-28T19:40:30.163Z,1.70
2023-04-28T19:43:53.526Z,1.57
2023-04-28T19:47:17.859Z,1.73
2023-04-28T19:50:22.588Z,1.53
2023-04-28T19:53:27.970Z,1.40
2023-04-28T19:56:51.563Z,1.83
2023-04-28T19:59:19.943Z,1.80
2023-04-28T20:02:08.295Z,1.70
2023-04-28T20:05:31.791Z,1.60
2023-04-28T20:08:37.871Z,1.70
2023-04-28T20:12:03.046Z,1.70
2023-04-28T20:15:45.563Z,1.70
2023-04-28T20:19:28.228Z,1.80
2023-04-28T20:22:33.238Z,1.30
2023-04-28T20:25:56.723Z,2.70
2023-04-28T20:29:03.004Z,3.00
2023-04-28T20:32:45.203Z,3.63
2023-04-28T20:35:13.650Z,2.70
2023-04-28T20:37:59.258Z,2.47
2023-04-28T20:41:22.388Z,2.37
2023-04-28T20:44:11.606Z,2.60
2023-04-28T20:47:15.958Z,3.30
2023-04-28T20:50:41.200Z,6.03
2023-04-28T20:53:45.815Z,6.90
2023-04-28T20:56:51.781Z,4.00
2023-04-28T20:59:57.967Z,2.57
2023-04-28T21:03:04.855Z,2.27
2023-04-28T21:06:10.883Z,1.87
2023-04-28T21:09:16.776Z,2.00
2023-04-28T21:12:58.966Z,1.63
2023-04-28T21:16:41.226Z,1.33
2023-04-28T21:20:06.006Z,1.83
2023-04-28T21:23:30.859Z,1.40
2023-04-28T21:26:56.125Z,1.77
2023-04-28T21:30:19.627Z,1.80
2023-04-28T21:32:48.213Z,1.80
2023-04-28T21:35:53.732Z,2.00
2023-04-28T21:38:59.148Z,2.30
2023-04-28T21:41:47.254Z,1.73
2023-04-28T21:44:53.344Z,1.97
2023-04-28T21:48:17.106Z,2.30
2023-04-28T21:51:40.962Z,2.40
2023-04-28T21:54:28.885Z,2.60
2023-04-28T21:57:33.711Z,2.40
2023-04-28T22:00:40.367Z,3.07
2023-04-28T22:03:26.662Z,2.40
2023-04-28T22:06:51.061Z,2.90
2023-04-28T22:10:14.289Z,2.87
2023-04-28T22:13:37.552Z,3.10
2023-04-28T22:16:24.885Z,3.00
2023-04-28T22:19:47.721Z,3.27
2023-04-28T22:22:53.977Z,3.50
2023-04-28T22:25:22.508Z,3.77
2023-04-28T22:28:46.833Z,3.70
2023-04-28T22:31:35.558Z,3.80
2023-04-28T22:34:05.971Z,3.90
2023-04-28T22:36:34.348Z,4.37
2023-04-28T22:39:04.268Z,3.80
2023-04-28T22:41:32.816Z,3.73
2023-04-28T22:44:01.324Z,3.87
2023-04-28T22:46:30.237Z,4.10
2023-04-28T22:49:00.210Z,3.93
2023-04-28T22:51:28.690Z,4.30
2023-04-28T22:53:57.795Z,4.17
2023-04-28T22:56:26.418Z,4.17
2023-04-28T22:58:54.892Z,4.63
2023-04-28T23:01:24.316Z,4.70
2023-04-28T23:03:52.827Z,3.63
2023-04-28T23:06:22.721Z,4.10
2023-04-28T23:08:51.576Z,3.73
2023-04-28T23:11:20.006Z,4.10
2023-04-28T23:13:48.459Z,3.93
2023-04-28T23:16:17.290Z,4.27
2023-04-28T23:18:46.271Z,4.20
2023-04-28T23:21:14.745Z,3.87
2023-04-28T23:23:44.578Z,3.93
2023-04-28T23:26:13.046Z,4.13
2023-04-28T23:28:41.569Z,3.97
2023-04-28T23:31:10.630Z,3.80
2023-04-28T23:33:39.239Z,3.67
2023-04-28T23:36:09.134Z,3.50
2023-04-28T23:38:37.797Z,3.67
2023-04-28T23:41:08.834Z,2.80
2023-04-28T23:43:37.241Z,3.10
2023-04-28T23:46:06.909Z,3.23
2023-04-28T23:48:36.132Z,3.37
2023-04-28T23:51:04.753Z,3.30
2023-04-28T23:53:33.110Z,3.17
2023-04-28T23:56:01.784Z,2.77
2023-04-28T23:58:31.585Z,3.00
